createdAt,value
2023-05-30T00:00:20.887Z,29.93
2023-05-30T00:01:25.068Z,30.67
2023-05-30T00:02:30.581Z,28.13
2023-05-30T00:03:34.489Z,28.35
2023-05-30T00:04:38.329Z,29.20
2023-05-30T00:05:42.081Z,29.93
2023-05-30T00:06:45.881Z,27.50
2023-05-30T00:07:49.622Z,28.50
2023-05-30T00:08:53.286Z,28.27
2023-05-30T00:09:56.981Z,27.17
2023-05-30T00:11:00.667Z,29.90
2023-05-30T00:12:04.806Z,28.73
2023-05-30T00:13:08.550Z,27.73
2023-05-30T00:14:12.112Z,28.58
2023-05-30T00:15:15.994Z,29.33
2023-05-30T00:16:19.764Z,26.27
2023-05-30T00:17:23.758Z,31.25
2023-05-30T00:18:29.446Z,27.30
2023-05-30T00:19:33.360Z,27.40
2023-05-30T00:20:37.151Z,30.05
2023-05-30T00:21:40.903Z,30.73
2023-05-30T00:22:44.583Z,26.33
2023-05-30T00:23:48.608Z,26.67
2023-05-30T00:24:52.869Z,25.50
2023-05-30T00:25:56.587Z,27.77
2023-05-30T00:27:00.207Z,25.07
2023-05-30T00:28:03.881Z,26.33
2023-05-30T00:29:07.692Z,21.60
2023-05-30T00:30:12.507Z,27.27
2023-05-30T00:31:16.285Z,22.65
2023-05-30T00:32:20.087Z,24.27
2023-05-30T00:33:24.495Z,22.67
2023-05-30T00:34:30.132Z,21.27
2023-05-30T00:35:33.851Z,23.20
2023-05-30T00:36:37.437Z,22.23
2023-05-30T00:37:41.137Z,22.70
2023-05-30T00:38:44.790Z,22.17
2023-05-30T00:39:48.500Z,21.02
2023-05-30T00:40:52.364Z,21.42
2023-05-30T00:41:56.074Z,20.45
2023-05-30T00:42:59.717Z,22.83
2023-05-30T00:44:03.513Z,21.88
2023-05-30T00:45:08.774Z,25.35
2023-05-30T00:46:12.798Z,20.60
2023-05-30T00:47:16.745Z,22.45
2023-05-30T00:48:20.827Z,23.20
2023-05-30T00:49:24.596Z,28.42
2023-05-30T00:50:30.782Z,23.67
2023-05-30T00:51:35.471Z,24.60
2023-05-30T00:52:39.467Z,22.13
2023-05-30T00:53:43.899Z,25.13
2023-05-30T00:54:48.603Z,25.90
2023-05-30T00:55:52.553Z,24.20
2023-05-30T00:56:56.746Z,26.23
2023-05-30T00:58:00.743Z,27.20
2023-05-30T00:59:04.746Z,25.23
2023-05-30T01:00:09.881Z,24.13
2023-05-30T01:01:14.036Z,26.00
2023-05-30T01:02:18.053Z,25.17
2023-05-30T01:03:23.775Z,25.52
2023-05-30T01:04:27.650Z,24.53
2023-05-30T01:05:33.125Z,25.00
2023-05-30T01:06:37.566Z,23.02
2023-05-30T01:07:41.262Z,24.42
2023-05-30T01:08:44.994Z,25.27
2023-05-30T01:09:48.816Z,26.53
2023-05-30T01:10:59.957Z,22.73
2023-05-30T01:12:12.136Z,21.40
2023-05-30T01:13:23.798Z,23.73
2023-05-30T01:14:36.185Z,23.13
2023-05-30T01:15:47.250Z,24.43
2023-05-30T01:16:56.279Z,23.77
2023-05-30T01:18:04.713Z,24.70
2023-05-30T01:19:29.119Z,25.60
2023-05-30T01:20:39.786Z,24.60
2023-05-30T01:21:44.452Z,22.53
2023-05-30T01:23:04.074Z,21.25
2023-05-30T01:24:17.420Z,22.15
2023-05-30T01:25:28.251Z,22.45
2023-05-30T01:26:49.608Z,22.45
2023-05-30T01:28:07.424Z,24.07
2023-05-30T01:29:16.272Z,21.42
2023-05-30T01:30:22.212Z,22.90
2023-05-30T01:31:26.756Z,22.40
2023-05-30T01:32:30.657Z,22.98
2023-05-30T01:33:35.183Z,20.27
2023-05-30T01:34:38.986Z,20.50
2023-05-30T01:35:45.066Z,23.00
2023-05-30T01:36:48.742Z,22.63
2023-05-30T01:37:52.505Z,22.90
2023-05-30T01:38:56.361Z,22.17
2023-05-30T01:40:00.276Z,23.92
2023-05-30T01:41:06.324Z,22.52
2023-05-30T01:42:18.714Z,24.77
2023-05-30T01:43:37.997Z,25.42
2023-05-30T01:44:51.289Z,27.07
2023-05-30T01:46:00.674Z,21.83
2023-05-30T01:47:14.099Z,24.45
2023-05-30T01:48:36.779Z,21.88
2023-05-30T01:49:45.139Z,22.95
2023-05-30T01:50:51.916Z,22.97
2023-05-30T01:52:00.868Z,22.75
2023-05-30T01:53:07.088Z,23.83
2023-05-30T01:54:13.218Z,23.80
2023-05-30T01:55:19.846Z,22.98
2023-05-30T01:56:25.016Z,21.33
2023-05-30T01:57:31.446Z,21.55
2023-05-30T01:58:38.465Z,21.55
2023-05-30T01:59:43.336Z,20.20
2023-05-30T02:00:48.365Z,22.52
2023-05-30T02:01:53.632Z,22.77
2023-05-30T02:02:57.533Z,24.15
2023-05-30T02:04:01.730Z,24.02
2023-05-30T02:05:05.936Z,25.50
2023-05-30T02:06:09.739Z,25.63
2023-05-30T02:07:13.390Z,23.53
2023-05-30T02:08:17.193Z,23.88
2023-05-30T02:09:20.963Z,23.25
2023-05-30T02:10:24.792Z,23.20
2023-05-30T02:11:28.645Z,21.38
2023-05-30T02:12:32.402Z,21.47
2023-05-30T02:13:37.734Z,20.92
2023-05-30T02:14:41.446Z,21.52
2023-05-30T02:15:45.393Z,21.33
2023-05-30T02:16:49.129Z,17.60
2023-05-30T02:17:52.857Z,17.57
2023-05-30T02:18:56.553Z,18.13
2023-05-30T02:20:00.310Z,18.02
2023-05-30T02:21:04.168Z,17.73
2023-05-30T02:22:09.518Z,13.07
2023-05-30T02:23:13.197Z,14.27
2023-05-30T02:24:18.531Z,16.42
2023-05-30T02:25:22.186Z,14.18
2023-05-30T02:26:26.385Z,13.70
2023-05-30T02:27:30.043Z,12.02
2023-05-30T02:28:33.714Z,13.50
2023-05-30T02:29:39.102Z,13.05
2023-05-30T02:30:42.820Z,11.15
2023-05-30T02:31:46.455Z,11.38
2023-05-30T02:32:50.460Z,10.15
2023-05-30T02:33:54.122Z,11.50
2023-05-30T02:34:57.777Z,12.02
2023-05-30T02:36:01.591Z,10.63
2023-05-30T02:37:05.573Z,10.60
2023-05-30T02:38:09.227Z,10.88
2023-05-30T02:39:13.128Z,11.13
2023-05-30T02:40:17.083Z,10.20
2023-05-30T02:41:20.835Z,9.38
2023-05-30T02:42:24.525Z,9.65
2023-05-30T02:43:28.361Z,8.52
2023-05-30T02:44:32.078Z,8.73
2023-05-30T02:45:37.423Z,9.00
2023-05-30T02:46:41.136Z,8.52
2023-05-30T02:47:44.917Z,8.93
2023-05-30T02:48:48.644Z,8.98
2023-05-30T02:49:52.307Z,8.30
2023-05-30T02:50:56.187Z,9.25
2023-05-30T02:52:00.153Z,9.55
2023-05-30T02:53:03.886Z,9.50
2023-05-30T02:54:07.563Z,8.68
2023-05-30T02:55:11.441Z,8.53
2023-05-30T02:56:15.181Z,9.55
2023-05-30T02:57:19.003Z,11.80
2023-05-30T02:58:22.627Z,9.77
2023-05-30T02:59:26.274Z,9.25
2023-05-30T03:00:29.947Z,10.37
2023-05-30T03:01:35.309Z,12.05
2023-05-30T03:02:39.093Z,11.05
2023-05-30T03:03:42.808Z,9.00
2023-05-30T03:04:46.678Z,9.05
2023-05-30T03:05:50.669Z,9.23
2023-05-30T03:06:54.457Z,8.98
2023-05-30T03:07:58.262Z,10.82
2023-05-30T03:09:02.573Z,9.43
2023-05-30T03:10:07.079Z,10.18
2023-05-30T03:11:10.891Z,10.63
2023-05-30T03:12:14.585Z,9.57
2023-05-30T03:13:18.328Z,9.00
2023-05-30T03:14:21.997Z,10.18
2023-05-30T03:15:25.649Z,9.60
2023-05-30T03:16:53.610Z,10.07
2023-05-30T03:17:57.309Z,10.27
2023-05-30T03:19:01.086Z,10.45
2023-05-30T03:20:05.136Z,9.07
2023-05-30T03:21:08.862Z,10.88
2023-05-30T03:22:12.643Z,11.23
2023-05-30T03:23:16.355Z,11.07
2023-05-30T03:24:20.059Z,11.60
2023-05-30T03:25:23.742Z,14.35
2023-05-30T03:26:27.815Z,11.75
2023-05-30T03:27:31.456Z,11.60
2023-05-30T03:28:35.166Z,12.82
2023-05-30T03:29:38.992Z,12.40
2023-05-30T03:30:42.597Z,13.05
2023-05-30T03:31:46.321Z,12.02
2023-05-30T03:32:51.732Z,12.80
2023-05-30T03:33:55.479Z,11.35
2023-05-30T03:34:59.168Z,12.20
2023-05-30T03:36:02.899Z,11.88
2023-05-30T03:37:06.996Z,11.45
2023-05-30T03:38:10.768Z,11.37
2023-05-30T03:39:14.645Z,12.52
2023-05-30T03:40:18.620Z,12.55
2023-05-30T03:41:22.218Z,12.30
2023-05-30T03:42:25.885Z,10.88
2023-05-30T03:43:29.535Z,11.07
2023-05-30T03:44:33.194Z,12.13
2023-05-30T03:45:36.952Z,13.77
2023-05-30T03:46:40.590Z,13.50
2023-05-30T03:47:44.205Z,12.80
2023-05-30T03:48:49.723Z,14.10
2023-05-30T03:49:54.805Z,12.57
2023-05-30T03:51:00.485Z,12.00
2023-05-30T03:52:04.322Z,13.00
2023-05-30T03:53:08.027Z,14.90
2023-05-30T03:54:11.748Z,11.37
2023-05-30T03:55:15.630Z,11.75
2023-05-30T03:56:19.377Z,11.07
2023-05-30T03:57:23.090Z,11.63
2023-05-30T03:58:26.718Z,12.30
2023-05-30T03:59:30.423Z,11.50
2023-05-30T04:00:34.086Z,12.82
2023-05-30T04:01:37.924Z,14.82
2023-05-30T04:02:41.739Z,12.23
2023-05-30T04:03:45.745Z,14.20
2023-05-30T04:04:51.035Z,11.20
2023-05-30T04:05:54.675Z,12.55
2023-05-30T04:06:58.425Z,12.50
2023-05-30T04:08:02.135Z,11.00
2023-05-30T04:09:06.151Z,11.07
2023-05-30T04:10:10.355Z,11.97
2023-05-30T04:11:13.968Z,12.93
2023-05-30T04:12:17.650Z,10.93
2023-05-30T04:13:21.332Z,10.15
2023-05-30T04:14:25.095Z,11.57
2023-05-30T04:15:28.739Z,13.20
2023-05-30T04:16:32.569Z,11.82
2023-05-30T04:17:36.549Z,13.55
2023-05-30T04:18:40.237Z,12.93
2023-05-30T04:19:43.887Z,13.15
2023-05-30T04:20:49.394Z,13.30
2023-05-30T04:21:53.206Z,11.55
2023-05-30T04:22:56.928Z,13.38
2023-05-30T04:24:00.795Z,11.90
2023-05-30T04:25:04.644Z,13.38
2023-05-30T04:26:08.494Z,11.37
2023-05-30T04:27:12.171Z,12.32
2023-05-30T04:28:15.938Z,11.90
2023-05-30T04:29:23.503Z,11.95
2023-05-30T04:30:27.227Z,13.30
2023-05-30T04:31:31.020Z,12.27
2023-05-30T04:32:35.001Z,13.40
2023-05-30T04:33:39.110Z,13.02
2023-05-30T04:34:42.817Z,12.98
2023-05-30T04:35:48.541Z,14.45
2023-05-30T04:36:52.275Z,13.23
2023-05-30T04:37:55.951Z,12.73
2023-05-30T04:38:59.607Z,12.68
2023-05-30T04:40:03.393Z,12.88
2023-05-30T04:41:07.395Z,13.80
2023-05-30T04:42:11.116Z,13.57
2023-05-30T04:43:14.807Z,12.45
2023-05-30T04:44:18.585Z,15.18
2023-05-30T04:45:22.165Z,12.80
2023-05-30T04:46:26.290Z,13.07
2023-05-30T04:47:30.069Z,12.77
2023-05-30T04:48:33.764Z,13.63
2023-05-30T04:49:37.454Z,14.07
2023-05-30T04:50:41.169Z,13.30
2023-05-30T04:51:46.617Z,14.70
2023-05-30T04:52:50.311Z,14.60
2023-05-30T04:53:54.724Z,14.45
2023-05-30T04:54:58.350Z,15.02
2023-05-30T04:56:01.997Z,13.65
2023-05-30T04:57:06.126Z,15.45
2023-05-30T04:58:09.741Z,15.43
2023-05-30T04:59:13.464Z,14.40
2023-05-30T05:00:18.138Z,17.00
2023-05-30T05:01:22.296Z,17.98
2023-05-30T05:02:26.134Z,19.38
2023-05-30T05:03:30.285Z,18.20
2023-05-30T05:04:34.151Z,18.48
2023-05-30T05:05:37.978Z,17.15
2023-05-30T05:06:41.651Z,18.08
2023-05-30T05:07:48.600Z,18.15
2023-05-30T05:08:52.218Z,17.73
2023-05-30T05:09:56.009Z,20.58
2023-05-30T05:10:59.818Z,15.77
2023-05-30T05:12:03.520Z,15.48
2023-05-30T05:13:10.066Z,16.67
2023-05-30T05:14:13.655Z,16.37
2023-05-30T05:15:17.699Z,16.35
2023-05-30T05:16:21.534Z,15.77
2023-05-30T05:17:25.313Z,17.17
2023-05-30T05:18:28.939Z,18.88
2023-05-30T05:19:32.649Z,17.93
2023-05-30T05:20:36.301Z,14.82
2023-05-30T05:21:39.955Z,17.83
2023-05-30T05:22:43.687Z,19.33
2023-05-30T05:23:49.795Z,15.82
2023-05-30T05:24:53.410Z,19.10
2023-05-30T05:25:57.406Z,17.85
2023-05-30T05:27:01.081Z,17.73
2023-05-30T05:28:04.829Z,17.00
2023-05-30T05:29:08.460Z,15.85
2023-05-30T05:30:12.884Z,16.80
2023-05-30T05:31:16.634Z,19.20
2023-05-30T05:32:20.554Z,16.63
2023-05-30T05:33:24.263Z,15.45
2023-05-30T05:34:28.029Z,16.58
2023-05-30T05:35:31.745Z,17.90
2023-05-30T05:36:35.412Z,17.55
2023-05-30T05:37:39.169Z,16.17
2023-05-30T05:38:43.128Z,15.25
2023-05-30T05:39:48.462Z,18.25
2023-05-30T05:40:52.055Z,22.90
2023-05-30T05:41:55.798Z,17.40
2023-05-30T05:42:59.539Z,18.48
2023-05-30T05:44:03.435Z,16.77
2023-05-30T05:45:07.937Z,19.58
2023-05-30T05:46:14.514Z,18.67
2023-05-30T05:47:18.265Z,16.70
2023-05-30T05:48:21.902Z,15.95
2023-05-30T05:49:25.645Z,15.30
2023-05-30T05:50:29.524Z,18.15
2023-05-30T05:51:33.275Z,18.00
2023-05-30T05:52:37.144Z,16.70
2023-05-30T05:53:40.858Z,17.60
2023-05-30T05:56:13.014Z,15.75
2023-05-30T05:57:21.583Z,16.80
2023-05-30T05:58:38.854Z,18.13
2023-05-30T05:59:48.476Z,16.95
2023-05-30T06:00:53.012Z,16.95
2023-05-30T06:01:56.853Z,17.02
2023-05-30T06:03:00.644Z,19.77
2023-05-30T06:04:12.089Z,19.52
2023-05-30T06:05:15.934Z,15.57
2023-05-30T06:06:19.526Z,15.82
2023-05-30T06:07:23.391Z,16.02
2023-05-30T06:08:27.083Z,16.77
2023-05-30T06:09:30.928Z,15.82
2023-05-30T06:10:34.794Z,15.85
2023-05-30T06:11:40.300Z,16.85
2023-05-30T06:12:44.256Z,17.50
2023-05-30T06:13:47.968Z,16.70
2023-05-30T06:14:51.741Z,17.30
2023-05-30T06:15:55.392Z,17.17
2023-05-30T06:16:59.067Z,16.00
2023-05-30T06:18:02.865Z,15.80
2023-05-30T06:19:06.586Z,15.90
2023-05-30T06:20:11.054Z,16.33
2023-05-30T06:21:15.123Z,14.45
2023-05-30T06:22:19.092Z,16.17
2023-05-30T06:23:22.876Z,20.70
2023-05-30T06:24:26.551Z,14.93
2023-05-30T06:25:30.228Z,14.73
2023-05-30T06:26:34.035Z,15.70
2023-05-30T06:27:39.364Z,17.00
2023-05-30T06:28:43.090Z,19.27
2023-05-30T06:29:46.699Z,16.73
2023-05-30T06:30:50.464Z,16.13
2023-05-30T06:32:00.417Z,16.13
2023-05-30T06:33:17.717Z,16.17
2023-05-30T06:34:21.472Z,17.50
2023-05-30T06:35:25.117Z,16.17
2023-05-30T06:36:28.836Z,16.98
2023-05-30T06:37:32.457Z,16.15
2023-05-30T06:38:36.971Z,15.15
2023-05-30T06:39:41.272Z,16.23
2023-05-30T06:40:44.924Z,16.57
2023-05-30T06:41:48.941Z,16.27
2023-05-30T06:42:54.273Z,16.80
2023-05-30T06:43:57.962Z,16.20
2023-05-30T06:45:01.666Z,16.15
2023-05-30T06:46:05.918Z,15.00
2023-05-30T06:47:09.625Z,15.75
2023-05-30T06:48:13.357Z,17.80
2023-05-30T06:49:17.051Z,16.02
2023-05-30T06:50:20.870Z,15.75
2023-05-30T06:51:24.494Z,16.63
2023-05-30T06:52:28.169Z,15.23
2023-05-30T06:53:31.731Z,15.15
2023-05-30T06:54:35.331Z,15.10
2023-05-30T06:55:39.050Z,16.67
2023-05-30T06:56:42.747Z,16.33
2023-05-30T06:57:48.078Z,14.38
2023-05-30T06:58:56.293Z,17.10
2023-05-30T06:59:59.968Z,16.38
2023-05-30T07:01:03.622Z,16.65
2023-05-30T07:02:07.772Z,17.03
2023-05-30T07:03:11.629Z,14.23
2023-05-30T07:04:15.363Z,13.40
2023-05-30T07:05:19.080Z,16.65
2023-05-30T07:06:22.824Z,16.77
2023-05-30T07:07:26.563Z,18.00
2023-05-30T07:08:30.193Z,14.57
2023-05-30T07:09:33.802Z,16.73
2023-05-30T07:10:37.584Z,16.88
2023-05-30T07:11:44.673Z,15.77
2023-05-30T07:12:48.334Z,17.63
2023-05-30T07:13:52.018Z,15.45
2023-05-30T07:14:57.325Z,16.08
2023-05-30T07:16:01.060Z,15.30
2023-05-30T07:17:05.081Z,14.15
2023-05-30T07:18:08.885Z,17.47
2023-05-30T07:19:13.265Z,15.60
2023-05-30T07:20:17.196Z,14.70
2023-05-30T07:21:21.001Z,14.82
2023-05-30T07:22:24.641Z,15.77
2023-05-30T07:23:28.364Z,17.47
2023-05-30T07:24:31.954Z,16.30
2023-05-30T07:25:35.670Z,16.10
2023-05-30T07:26:39.322Z,16.60
2023-05-30T07:27:42.982Z,14.20
2023-05-30T07:28:46.656Z,18.30
2023-05-30T07:29:50.721Z,15.50
2023-05-30T07:30:56.361Z,13.77
2023-05-30T07:32:00.307Z,13.45
2023-05-30T07:33:04.113Z,14.15
2023-05-30T07:34:07.747Z,16.17
2023-05-30T07:35:11.469Z,14.93
2023-05-30T07:36:15.162Z,14.38
2023-05-30T07:37:18.821Z,16.80
2023-05-30T07:38:22.588Z,17.25
2023-05-30T07:39:26.498Z,15.17
2023-05-30T07:40:30.317Z,14.13
2023-05-30T07:41:34.066Z,15.38
2023-05-30T07:42:37.976Z,14.63
2023-05-30T07:43:41.615Z,15.55
2023-05-30T07:44:45.251Z,15.93
2023-05-30T07:45:50.635Z,15.27
2023-05-30T07:46:56.405Z,15.70
2023-05-30T07:48:00.248Z,19.05
2023-05-30T07:49:04.232Z,15.60
2023-05-30T07:50:09.457Z,18.47
2023-05-30T07:51:13.170Z,17.02
2023-05-30T07:52:16.905Z,16.65
2023-05-30T07:53:20.620Z,16.05
2023-05-30T07:54:24.306Z,19.88
2023-05-30T07:55:28.355Z,18.20
2023-05-30T07:56:32.053Z,17.83
2023-05-30T07:57:35.777Z,15.88
2023-05-30T07:58:39.474Z,15.32
2023-05-30T07:59:43.290Z,14.93
2023-05-30T08:00:46.964Z,18.07
2023-05-30T08:01:50.618Z,17.90
2023-05-30T08:02:55.988Z,15.30
2023-05-30T08:03:59.892Z,15.90
2023-05-30T08:05:03.875Z,14.90
2023-05-30T08:06:07.832Z,17.50
2023-05-30T08:07:11.510Z,16.00
2023-05-30T08:08:15.295Z,16.10
2023-05-30T08:09:18.916Z,15.77
2023-05-30T08:10:22.638Z,16.42
2023-05-30T08:11:26.255Z,17.20
2023-05-30T08:12:29.955Z,16.23
2023-05-30T08:13:33.668Z,16.48
2023-05-30T08:14:38.320Z,16.15
2023-05-30T08:15:42.668Z,16.80
2023-05-30T08:16:46.350Z,15.37
2023-05-30T08:17:50.474Z,15.15
2023-05-30T08:18:56.738Z,16.23
2023-05-30T08:20:00.641Z,15.75
2023-05-30T08:21:04.532Z,14.77
2023-05-30T08:22:08.872Z,15.87
2023-05-30T08:23:12.576Z,15.77
2023-05-30T08:24:16.377Z,17.10
2023-05-30T08:25:22.555Z,15.63
2023-05-30T08:26:26.244Z,16.45
2023-05-30T08:27:30.031Z,16.67
2023-05-30T08:28:33.700Z,17.50
2023-05-30T08:29:37.388Z,15.77
2023-05-30T08:30:41.710Z,15.07
2023-05-30T08:31:45.950Z,17.38
2023-05-30T08:32:49.783Z,18.17
2023-05-30T08:33:55.116Z,16.27
2023-05-30T08:34:58.865Z,15.80
2023-05-30T08:36:02.635Z,16.58
2023-05-30T08:37:06.740Z,16.45
2023-05-30T08:38:10.360Z,17.20
2023-05-30T08:39:15.446Z,13.93
2023-05-30T08:40:21.124Z,15.18
2023-05-30T08:41:25.215Z,15.32
2023-05-30T08:42:28.932Z,14.02
2023-05-30T08:43:32.816Z,17.37
2023-05-30T08:44:36.702Z,18.15
2023-05-30T08:45:40.984Z,18.02
2023-05-30T08:46:44.897Z,17.10
2023-05-30T08:47:49.691Z,18.38
2023-05-30T08:48:55.987Z,18.60
2023-05-30T08:50:03.104Z,22.35
2023-05-30T08:51:07.925Z,19.20
2023-05-30T08:52:14.310Z,19.08
2023-05-30T08:53:26.227Z,21.40
2023-05-30T08:54:41.442Z,19.90
2023-05-30T08:55:46.340Z,20.75
2023-05-30T08:56:56.346Z,15.73
2023-05-30T08:58:05.516Z,17.23
2023-05-30T08:59:11.723Z,19.45
2023-05-30T09:00:17.278Z,18.30
2023-05-30T09:01:21.737Z,17.40
2023-05-30T09:02:26.654Z,17.33
2023-05-30T09:03:32.052Z,15.93
2023-05-30T09:04:37.597Z,17.42
2023-05-30T09:05:42.197Z,18.10
2023-05-30T09:06:47.858Z,17.40
2023-05-30T09:07:53.796Z,17.33
2023-05-30T09:08:57.840Z,16.05
2023-05-30T09:10:02.697Z,17.63
2023-05-30T09:11:07.221Z,16.53
2023-05-30T09:12:11.178Z,15.18
2023-05-30T09:13:14.856Z,14.55
2023-05-30T09:14:18.715Z,14.40
2023-05-30T09:15:25.144Z,17.92
2023-05-30T09:16:29.388Z,14.80
2023-05-30T09:17:33.084Z,15.10
2023-05-30T09:18:36.938Z,14.63
2023-05-30T09:19:42.408Z,17.05
2023-05-30T09:20:46.737Z,15.05
2023-05-30T09:21:50.537Z,15.23
2023-05-30T09:22:54.212Z,13.95
2023-05-30T09:24:01.606Z,15.85
2023-05-30T09:25:06.612Z,14.73
2023-05-30T09:26:10.311Z,13.70
2023-05-30T09:27:14.049Z,14.37
2023-05-30T09:28:24.737Z,13.07
2023-05-30T09:29:28.362Z,16.80
2023-05-30T09:30:31.993Z,13.52
2023-05-30T09:31:37.407Z,13.75
2023-05-30T09:32:41.336Z,13.70
2023-05-30T09:33:46.123Z,15.90
2023-05-30T09:34:58.705Z,13.15
2023-05-30T09:36:03.039Z,14.63
2023-05-30T09:37:07.540Z,13.57
2023-05-30T09:38:16.029Z,15.30
2023-05-30T09:39:19.744Z,12.93
2023-05-30T09:40:25.842Z,13.90
2023-05-30T09:41:30.577Z,13.82
2023-05-30T09:42:41.410Z,13.93
2023-05-30T09:43:45.377Z,15.73
2023-05-30T09:44:54.522Z,14.75
2023-05-30T09:45:58.129Z,13.80
2023-05-30T09:47:01.942Z,13.27
2023-05-30T09:48:06.186Z,13.60
2023-05-30T09:49:13.401Z,14.47
2023-05-30T09:50:20.142Z,13.00
2023-05-30T09:51:24.847Z,15.38
2023-05-30T09:52:28.501Z,13.23
2023-05-30T09:53:35.292Z,12.65
2023-05-30T09:54:39.663Z,12.90
2023-05-30T09:55:45.117Z,11.48
2023-05-30T09:56:49.984Z,13.15
2023-05-30T09:57:54.292Z,13.88
2023-05-30T09:58:59.205Z,13.13
2023-05-30T10:00:04.995Z,14.60
2023-05-30T10:01:17.213Z,14.43
2023-05-30T10:02:24.598Z,16.40
2023-05-30T10:03:43.712Z,14.07
2023-05-30T10:04:47.448Z,14.20
2023-05-30T10:05:52.811Z,14.37
2023-05-30T10:06:56.768Z,13.15
2023-05-30T10:08:00.689Z,16.08
2023-05-30T10:09:04.469Z,13.63
2023-05-30T10:10:09.036Z,14.15
2023-05-30T10:11:12.758Z,14.53
2023-05-30T10:12:16.407Z,15.25
2023-05-30T10:13:20.148Z,13.73
2023-05-30T10:14:23.834Z,13.38
2023-05-30T10:15:27.666Z,14.27
2023-05-30T10:16:34.201Z,14.43
2023-05-30T10:17:40.425Z,14.02
2023-05-30T10:18:50.263Z,15.13
2023-05-30T10:19:59.610Z,14.73
2023-05-30T10:21:05.380Z,14.43
2023-05-30T10:22:09.805Z,14.70
2023-05-30T10:23:14.879Z,15.50
2023-05-30T10:24:21.246Z,15.05
2023-05-30T10:25:28.600Z,15.48
2023-05-30T10:26:36.226Z,15.68
2023-05-30T10:27:44.395Z,13.80
2023-05-30T10:28:51.674Z,15.50
2023-05-30T10:30:04.003Z,14.95
2023-05-30T10:31:09.230Z,13.63
2023-05-30T10:32:15.871Z,15.93
2023-05-30T10:33:30.146Z,13.43
2023-05-30T10:34:47.662Z,16.38
2023-05-30T10:35:51.684Z,15.02
2023-05-30T10:36:57.576Z,14.98
2023-05-30T10:38:01.752Z,15.30
2023-05-30T10:39:15.283Z,14.90
2023-05-30T10:40:29.418Z,14.60
2023-05-30T10:41:56.137Z,15.80
2023-05-30T10:43:13.090Z,15.10
2023-05-30T10:44:40.439Z,17.20
2023-05-30T10:45:54.348Z,13.40
2023-05-30T10:47:13.345Z,13.88
2023-05-30T10:48:27.120Z,13.88
2023-05-30T10:49:33.554Z,13.77
2023-05-30T10:50:43.593Z,13.63
2023-05-30T10:52:06.601Z,12.80
2023-05-30T10:53:16.573Z,13.48
2023-05-30T10:54:20.213Z,15.60
2023-05-30T10:55:24.146Z,13.68
2023-05-30T10:56:40.738Z,15.07
2023-05-30T10:57:44.906Z,14.80
2023-05-30T10:58:48.645Z,12.63
2023-05-30T10:59:52.389Z,14.15
2023-05-30T11:00:56.127Z,14.95
2023-05-30T11:02:04.024Z,11.43
2023-05-30T11:03:07.929Z,12.00
2023-05-30T11:04:13.256Z,13.55
2023-05-30T11:05:21.615Z,14.93
2023-05-30T11:06:26.092Z,11.27
2023-05-30T11:07:34.533Z,11.88
2023-05-30T11:08:38.250Z,15.17
2023-05-30T11:09:43.451Z,10.55
2023-05-30T11:10:47.306Z,11.30
2023-05-30T11:11:59.449Z,12.90
2023-05-30T11:13:10.006Z,12.73
2023-05-30T11:14:14.472Z,12.27
2023-05-30T11:15:19.073Z,14.35
2023-05-30T11:16:26.125Z,14.38
2023-05-30T11:17:37.516Z,13.05
2023-05-30T11:18:42.291Z,13.75
2023-05-30T11:19:51.411Z,15.70
2023-05-30T11:20:55.811Z,13.57
2023-05-30T11:22:01.305Z,13.07
2023-05-30T11:23:22.730Z,13.30
2023-05-30T11:24:27.075Z,11.70
2023-05-30T11:25:31.594Z,12.40
2023-05-30T11:26:56.800Z,10.82
2023-05-30T11:28:14.840Z,11.63
2023-05-30T11:29:32.004Z,12.82
2023-05-30T11:30:36.402Z,12.43
2023-05-30T11:31:42.240Z,10.13
2023-05-30T11:32:46.226Z,10.82
2023-05-30T11:33:50.201Z,12.73
2023-05-30T11:35:04.099Z,13.07
2023-05-30T11:36:11.307Z,12.43
2023-05-30T11:37:16.363Z,11.03
2023-05-30T11:38:24.831Z,11.90
2023-05-30T11:39:28.680Z,11.65
2023-05-30T11:40:32.421Z,12.15
2023-05-30T11:41:37.817Z,11.27
2023-05-30T11:42:41.774Z,11.63
2023-05-30T11:43:45.980Z,11.57
2023-05-30T11:44:50.073Z,11.63
2023-05-30T11:45:56.358Z,11.95
2023-05-30T11:47:04.241Z,10.77
2023-05-30T11:48:09.545Z,12.27
2023-05-30T11:49:13.360Z,11.05
2023-05-30T11:50:17.039Z,10.88
2023-05-30T11:51:20.770Z,12.02
2023-05-30T11:52:24.446Z,10.75
2023-05-30T11:53:30.058Z,13.17
2023-05-30T11:54:33.824Z,13.02
2023-05-30T11:55:37.465Z,12.38
2023-05-30T11:56:41.189Z,10.77
2023-05-30T11:57:44.973Z,8.95
2023-05-30T11:58:51.992Z,10.57
2023-05-30T11:59:57.015Z,9.13
2023-05-30T12:01:01.561Z,9.48
2023-05-30T12:02:05.716Z,9.15
2023-05-30T12:03:11.193Z,10.10
2023-05-30T12:04:14.981Z,9.73
2023-05-30T12:05:18.830Z,10.60
2023-05-30T12:06:22.622Z,10.65
2023-05-30T12:07:26.621Z,8.80
2023-05-30T12:08:31.995Z,9.30
2023-05-30T12:09:39.524Z,10.20
2023-05-30T12:10:43.370Z,8.85
2023-05-30T12:11:57.013Z,8.98
2023-05-30T12:13:02.280Z,10.27
2023-05-30T12:14:06.002Z,8.55
2023-05-30T12:15:10.606Z,9.40
2023-05-30T12:16:15.280Z,8.45
2023-05-30T12:17:20.409Z,8.77
2023-05-30T12:18:24.437Z,8.88
2023-05-30T12:19:32.007Z,9.18
2023-05-30T12:20:43.998Z,8.90
2023-05-30T12:21:47.728Z,8.63
2023-05-30T12:22:52.448Z,10.23
2023-05-30T12:23:57.901Z,9.95
2023-05-30T12:25:05.719Z,10.05
2023-05-30T12:26:09.497Z,9.53
2023-05-30T12:27:18.325Z,9.80
2023-05-30T12:28:22.234Z,9.68
2023-05-30T12:29:26.847Z,10.32
2023-05-30T12:30:34.458Z,10.27
2023-05-30T12:31:38.346Z,10.13
2023-05-30T12:32:42.220Z,9.65
2023-05-30T12:33:46.053Z,11.27
2023-05-30T12:34:50.828Z,9.10
2023-05-30T12:35:55.869Z,9.77
2023-05-30T12:36:59.753Z,8.73
2023-05-30T12:38:04.925Z,11.10
2023-05-30T12:39:10.456Z,9.68
2023-05-30T12:40:14.188Z,9.27
2023-05-30T12:41:29.249Z,9.00
2023-05-30T12:42:33.966Z,9.40
2023-05-30T12:43:38.560Z,9.80
2023-05-30T12:44:54.593Z,10.63
2023-05-30T12:46:01.201Z,9.77
2023-05-30T12:47:05.420Z,11.32
2023-05-30T12:48:09.258Z,12.03
2023-05-30T12:49:13.182Z,9.90
2023-05-30T12:50:17.162Z,10.60
2023-05-30T12:51:20.927Z,11.98
2023-05-30T12:52:25.467Z,10.65
2023-05-30T12:53:29.222Z,12.20
2023-05-30T12:54:35.014Z,11.18
2023-05-30T12:55:38.731Z,12.55
2023-05-30T12:56:42.342Z,11.15
2023-05-30T12:57:46.052Z,11.68
2023-05-30T12:58:49.782Z,10.77
2023-05-30T12:59:53.855Z,11.20
2023-05-30T13:00:57.711Z,12.27
2023-05-30T13:02:01.586Z,10.93
2023-05-30T13:03:05.644Z,11.27
2023-05-30T13:04:09.562Z,10.73
2023-05-30T13:05:13.462Z,11.15
2023-05-30T13:06:17.214Z,10.88
2023-05-30T13:07:21.455Z,11.35
2023-05-30T13:08:25.247Z,12.73
2023-05-30T13:09:28.957Z,12.80
2023-05-30T13:10:34.329Z,11.27
2023-05-30T13:11:38.023Z,12.55
2023-05-30T13:12:41.667Z,12.23
2023-05-30T13:13:45.568Z,12.38
2023-05-30T13:14:49.246Z,12.10
2023-05-30T13:15:53.049Z,11.80
2023-05-30T13:16:56.821Z,11.60
2023-05-30T13:18:00.533Z,13.85
2023-05-30T13:19:04.202Z,15.60
2023-05-30T13:20:08.999Z,13.13
2023-05-30T13:21:12.863Z,16.20
2023-05-30T13:22:16.674Z,13.82
2023-05-30T13:23:20.388Z,12.50
2023-05-30T13:24:24.046Z,13.75
2023-05-30T13:25:27.881Z,12.20
2023-05-30T13:26:33.236Z,11.65
2023-05-30T13:27:36.881Z,14.75
2023-05-30T13:28:40.602Z,14.32
2023-05-30T13:29:45.676Z,13.45
2023-05-30T13:30:49.446Z,14.73
2023-05-30T13:31:53.240Z,14.70
2023-05-30T13:32:56.984Z,13.52
2023-05-30T13:34:00.736Z,14.52
2023-05-30T13:35:04.698Z,15.15
2023-05-30T13:36:08.882Z,13.67
2023-05-30T13:37:12.573Z,15.80
2023-05-30T13:38:16.418Z,13.95
2023-05-30T13:39:20.165Z,13.65
2023-05-30T13:40:23.849Z,15.35
2023-05-30T13:41:28.441Z,14.60
2023-05-30T13:42:33.761Z,13.63
2023-05-30T13:43:37.527Z,13.35
2023-05-30T13:44:41.137Z,15.20
2023-05-30T13:45:44.943Z,15.20
2023-05-30T13:46:48.856Z,15.90
2023-05-30T13:47:52.625Z,15.93
2023-05-30T13:48:56.345Z,17.45
2023-05-30T13:50:00.048Z,14.57
2023-05-30T13:51:03.960Z,15.57
2023-05-30T13:52:08.114Z,14.63
2023-05-30T13:53:11.838Z,14.43
2023-05-30T13:54:15.474Z,16.17
2023-05-30T13:55:19.428Z,14.27
2023-05-30T13:56:23.125Z,15.55
2023-05-30T13:57:26.904Z,13.40
2023-05-30T13:58:32.566Z,14.10
2023-05-30T13:59:36.380Z,14.73
2023-05-30T14:00:40.430Z,14.15
2023-05-30T14:01:44.124Z,14.30
2023-05-30T14:02:48.970Z,14.00